createdAt,value
2018-01-14T00:00:37.154Z,68.71
2018-01-14T00:01:17.712Z,69.09
2018-01-14T00:01:58.307Z,69.15
2018-01-14T00:02:38.889Z,69.09
2018-01-14T00:03:19.458Z,69
2018-01-14T00:04:00.026Z,68.9
2018-01-14T00:04:40.591Z,69.28
2018-01-14T00:05:21.161Z,69
2018-01-14T00:06:01.733Z,69.19
2018-01-14T00:06:42.303Z,69.09
2018-01-14T00:07:22.862Z,68.9
2018-01-14T00:08:03.434Z,69.28
2018-01-14T00:08:44.015Z,69.38
2018-01-14T00:09:24.570Z,69
2018-01-14T00:10:05.128Z,69.28
2018-01-14T00:10:45.724Z,69
2018-01-14T00:11:26.291Z,69.28
2018-01-14T00:12:06.850Z,69.47
2018-01-14T00:12:47.420Z,69.09
2018-01-14T00:13:28.001Z,68.96
2018-01-14T00:14:08.571Z,69.19
2018-01-14T00:14:49.118Z,69.09
2018-01-14T00:15:29.678Z,69
2018-01-14T00:16:10.238Z,69.66
2018-01-14T00:16:50.807Z,69.34
2018-01-14T00:17:31.365Z,69.09
2018-01-14T00:18:11.946Z,69.15
2018-01-14T00:18:52.518Z,68.96
2018-01-14T00:19:33.101Z,69.72
2018-01-14T00:20:13.666Z,69.72
2018-01-14T00:20:54.251Z,69.53
2018-01-14T00:21:34.808Z,69.44
2018-01-14T00:22:15.365Z,69.53
2018-01-14T00:22:55.925Z,69.34
2018-01-14T00:23:36.476Z,69.34
2018-01-14T00:24:17.058Z,69.63
2018-01-14T00:24:57.630Z,69.82
2018-01-14T00:25:38.208Z,69.63
2018-01-14T00:26:18.764Z,69.47
2018-01-14T00:26:59.326Z,69.53
2018-01-14T00:27:39.900Z,69.57
2018-01-14T00:28:20.478Z,69.63
2018-01-14T00:29:01.125Z,69.72
2018-01-14T00:29:41.685Z,70.01
2018-01-14T00:30:22.290Z,69.72
2018-01-14T00:31:02.882Z,69.53
2018-01-14T00:31:43.467Z,69.63
2018-01-14T00:32:24.043Z,69.82
2018-01-14T00:33:04.609Z,69.63
2018-01-14T00:33:45.209Z,69.82
2018-01-14T00:34:25.784Z,69.82
2018-01-14T00:35:06.377Z,69.91
2018-01-14T00:35:46.949Z,69.82
2018-01-14T00:36:27.512Z,70.2
2018-01-14T00:37:08.069Z,70.2
2018-01-14T00:37:48.632Z,69.72
2018-01-14T00:38:29.200Z,69.63
2018-01-14T00:39:09.778Z,70.2
2018-01-14T00:39:50.330Z,70.2
2018-01-14T00:40:30.906Z,70.48
2018-01-14T00:41:11.469Z,70.39
2018-01-14T00:41:52.034Z,70.39
2018-01-14T00:42:32.625Z,70.57
2018-01-14T00:43:13.216Z,70.01
2018-01-14T00:43:53.804Z,70.2
2018-01-14T00:44:34.362Z,70.39
2018-01-14T00:45:14.928Z,70.01
2018-01-14T00:45:55.488Z,70.2
2018-01-14T00:46:36.070Z,69.72
2018-01-14T00:47:16.629Z,70.2
2018-01-14T00:47:57.210Z,70.29
2018-01-14T00:48:37.765Z,70.39
2018-01-14T00:49:18.333Z,70.39
2018-01-14T00:49:58.920Z,70.01
2018-01-14T00:50:39.492Z,70.29
2018-01-14T00:51:20.048Z,70.29
2018-01-14T00:52:00.612Z,70.39
2018-01-14T00:52:41.171Z,70.48
2018-01-14T00:53:21.748Z,70.57
2018-01-14T00:54:02.319Z,70.76
2018-01-14T00:54:42.900Z,70.67
2018-01-14T00:55:23.486Z,70.76
2018-01-14T00:56:04.053Z,70.76
2018-01-14T00:56:44.626Z,70.48
2018-01-14T00:57:25.218Z,70.67
2018-01-14T00:58:05.774Z,70.67
2018-01-14T00:58:46.347Z,70.48
2018-01-14T00:59:26.905Z,70.67
2018-01-14T01:00:07.494Z,71.33
2018-01-14T01:00:48.068Z,70.86
2018-01-14T01:01:28.630Z,71.04
2018-01-14T01:02:09.182Z,70.95
2018-01-14T01:02:49.754Z,70.67
2018-01-14T01:03:30.317Z,70.95
2018-01-14T01:04:10.895Z,70.86
2018-01-14T01:04:51.456Z,71.14
2018-01-14T01:05:32.054Z,70.76
2018-01-14T01:06:12.637Z,71.04
2018-01-14T01:06:53.195Z,71.04
2018-01-14T01:07:33.761Z,70.86
2018-01-14T01:08:14.344Z,71.23
2018-01-14T01:08:54.910Z,71.23
2018-01-14T01:09:35.469Z,70.95
2018-01-14T01:10:16.026Z,71.14
2018-01-14T01:10:58.593Z,71.42
2018-01-14T01:11:39.161Z,70.95
2018-01-14T01:12:19.728Z,70.86
2018-01-14T01:13:00.311Z,71.04
2018-01-14T01:13:40.872Z,71.14
2018-01-14T01:14:21.440Z,70.95
2018-01-14T01:15:02.003Z,70.95
2018-01-14T01:15:42.583Z,70.86
2018-01-14T01:16:23.154Z,70.86
2018-01-14T01:17:03.746Z,70.86
2018-01-14T01:17:44.274Z,70.95
2018-01-14T01:18:24.823Z,70.76
2018-01-14T01:19:05.376Z,70.95
2018-01-14T01:19:45.959Z,71.04
2018-01-14T01:20:26.529Z,71.14
2018-01-14T01:21:07.127Z,70.95
2018-01-14T01:21:47.679Z,70.95
2018-01-14T01:22:28.234Z,71.04
2018-01-14T01:23:08.791Z,71.42
2018-01-14T01:23:49.343Z,71.42
2018-01-14T01:24:29.906Z,71.42
2018-01-14T01:25:10.472Z,71.52
2018-01-14T01:25:51.052Z,71.42
2018-01-14T01:26:31.615Z,71.33
2018-01-14T01:27:12.168Z,71.04
2018-01-14T01:27:52.757Z,71.04
2018-01-14T01:28:33.323Z,71.14
2018-01-14T01:29:13.877Z,71.14
2018-01-14T01:29:54.441Z,71.14
2018-01-14T01:30:34.979Z,71.42
2018-01-14T01:31:15.532Z,71.52
2018-01-14T01:31:56.080Z,71.61
2018-01-14T01:32:36.655Z,71.9
2018-01-14T01:33:17.209Z,71.8
2018-01-14T01:33:57.767Z,71.9
2018-01-14T01:34:38.329Z,71.61
2018-01-14T01:35:18.891Z,71.61
2018-01-14T01:35:59.463Z,71.23
2018-01-14T01:36:40.023Z,71.61
2018-01-14T01:37:20.575Z,71.33
2018-01-14T01:38:01.128Z,71.52
2018-01-14T01:38:41.685Z,71.8
2018-01-14T01:39:22.242Z,71.61
2018-01-14T01:40:02.810Z,71.14
2018-01-14T01:40:43.365Z,71.23
2018-01-14T01:41:23.929Z,71.42
2018-01-14T01:42:04.494Z,71.42
2018-01-14T01:42:45.040Z,71.9
2018-01-14T01:43:25.596Z,71.71
2018-01-14T01:44:06.147Z,71.61
2018-01-14T01:44:46.727Z,71.71
2018-01-14T01:45:27.275Z,71.42
2018-01-14T01:46:07.842Z,71.52
2018-01-14T01:46:48.398Z,71.61
2018-01-14T01:47:28.955Z,71.9
2018-01-14T01:48:09.505Z,71.9
2018-01-14T01:48:50.068Z,71.9
2018-01-14T01:49:30.628Z,71.33
2018-01-14T01:50:11.178Z,71.42
2018-01-14T01:50:51.736Z,71.52
2018-01-14T01:51:32.292Z,71.42
2018-01-14T01:52:12.870Z,72.09
2018-01-14T01:52:53.424Z,72.09
2018-01-14T01:53:33.989Z,71.33
2018-01-14T01:54:14.560Z,71.71
2018-01-14T01:54:55.109Z,71.61
2018-01-14T01:55:35.678Z,71.52
2018-01-14T01:56:16.246Z,71.61
2018-01-14T01:56:56.805Z,71.42
2018-01-14T01:57:37.370Z,72.09
2018-01-14T01:58:17.951Z,72.09
2018-01-14T01:58:58.513Z,71.99
2018-01-14T01:59:39.109Z,71.61
2018-01-14T02:00:19.687Z,71.71
2018-01-14T02:01:00.247Z,71.9
2018-01-14T02:01:40.817Z,72.09
2018-01-14T02:02:21.368Z,71.71
2018-01-14T02:03:01.916Z,71.9
2018-01-14T02:03:42.493Z,71.71
2018-01-14T02:04:23.061Z,71.99
2018-01-14T02:05:03.627Z,71.71
2018-01-14T02:05:44.191Z,71.9
2018-01-14T02:06:24.751Z,72.18
2018-01-14T02:07:05.299Z,71.8
2018-01-14T02:07:45.897Z,71.9
2018-01-14T02:08:26.441Z,72.18
2018-01-14T02:09:07.008Z,72.28
2018-01-14T02:09:47.599Z,72.09
2018-01-14T02:10:28.161Z,72.09
2018-01-14T02:11:08.726Z,72.09
2018-01-14T02:11:49.332Z,71.9
2018-01-14T02:12:29.885Z,72.09
2018-01-14T02:13:10.434Z,72.09
2018-01-14T02:13:50.988Z,72.09
2018-01-14T02:14:31.587Z,71.99
2018-01-14T02:15:12.159Z,71.9
2018-01-14T02:15:52.754Z,71.61
2018-01-14T02:16:33.335Z,71.71
2018-01-14T02:17:13.937Z,72.09
2018-01-14T02:17:54.512Z,71.9
2018-01-14T02:18:35.097Z,71.9
2018-01-14T02:19:15.679Z,71.9
2018-01-14T02:19:56.267Z,71.9
2018-01-14T02:20:36.862Z,71.9
2018-01-14T02:21:17.420Z,72.09
2018-01-14T02:21:57.998Z,72.18
2018-01-14T02:22:38.551Z,72.09
2018-01-14T02:23:19.124Z,71.9
2018-01-14T02:23:59.679Z,71.61
2018-01-14T02:24:40.292Z,71.71
2018-01-14T02:25:20.891Z,71.8
2018-01-14T02:26:01.451Z,71.9
2018-01-14T02:26:42.013Z,71.9
2018-01-14T02:27:22.586Z,71.8
2018-01-14T02:28:03.160Z,72.18
2018-01-14T02:28:43.760Z,71.9
2018-01-14T02:29:24.333Z,72.28
2018-01-14T02:30:04.926Z,71.9
2018-01-14T02:30:45.547Z,71.9
2018-01-14T02:31:26.123Z,72.28
2018-01-14T02:32:06.679Z,71.9
2018-01-14T02:32:47.239Z,71.9
2018-01-14T02:33:27.827Z,71.8
2018-01-14T02:34:08.400Z,72.09
2018-01-14T02:34:48.958Z,71.9
2018-01-14T02:35:29.524Z,72.09
2018-01-14T02:36:10.087Z,71.9
2018-01-14T02:36:50.669Z,72.09
2018-01-14T02:37:31.254Z,72.09
2018-01-14T02:38:11.814Z,71.61
2018-01-14T02:38:52.380Z,71.86
2018-01-14T02:39:32.982Z,71.8
2018-01-14T02:40:13.554Z,71.61
2018-01-14T02:40:54.139Z,72.18
2018-01-14T02:41:34.690Z,71.9
2018-01-14T02:42:15.257Z,72.09
2018-01-14T02:42:55.829Z,71.61
2018-01-14T02:43:36.398Z,71.61
2018-01-14T02:44:16.964Z,71.71
2018-01-14T02:44:57.554Z,72.09
2018-01-14T02:45:38.134Z,72.09
2018-01-14T02:46:18.694Z,71.61
2018-01-14T02:46:59.252Z,71.61
2018-01-14T02:47:39.806Z,71.52
2018-01-14T02:48:20.359Z,72.09
2018-01-14T02:49:00.958Z,72.05
2018-01-14T02:49:41.523Z,72.18
2018-01-14T02:50:22.078Z,72.28
2018-01-14T02:51:02.628Z,72.37
2018-01-14T02:51:43.198Z,71.71
2018-01-14T02:52:23.749Z,71.99
2018-01-14T02:53:04.315Z,71.8
2018-01-14T02:53:44.871Z,71.9
2018-01-14T02:54:25.425Z,71.52
2018-01-14T02:55:05.979Z,71.42
2018-01-14T02:55:46.542Z,71.61
2018-01-14T02:56:27.094Z,71.71
2018-01-14T02:57:07.654Z,71.42
2018-01-14T02:57:48.252Z,71.61
2018-01-14T02:58:28.817Z,71.9
2018-01-14T02:59:09.373Z,71.8
2018-01-14T02:59:49.920Z,71.71
2018-01-14T03:00:30.501Z,71.9
2018-01-14T03:01:11.057Z,71.95
2018-01-14T03:01:51.626Z,71.95
2018-01-14T03:02:32.199Z,71.95
2018-01-14T03:03:12.755Z,72.14
2018-01-14T03:03:53.319Z,72.05
2018-01-14T03:04:35.713Z,72.33
2018-01-14T03:05:16.328Z,72.05
2018-01-14T03:05:56.898Z,72.14
2018-01-14T03:06:37.449Z,72.05
2018-01-14T03:07:18.061Z,72.05
2018-01-14T03:07:58.622Z,72.14
2018-01-14T03:08:39.200Z,71.95
2018-01-14T03:09:19.757Z,71.95
2018-01-14T03:10:00.319Z,71.95
2018-01-14T03:10:40.899Z,72.24
2018-01-14T03:11:21.458Z,72.05
2018-01-14T03:12:02.013Z,72.14
2018-01-14T03:12:42.572Z,72.05
2018-01-14T03:13:23.120Z,72.05
2018-01-14T03:14:03.681Z,72.05
2018-01-14T03:14:44.246Z,71.86
2018-01-14T03:15:24.797Z,71.77
2018-01-14T03:16:05.363Z,71.86
2018-01-14T03:16:45.922Z,72.05
2018-01-14T03:17:26.499Z,72.14
2018-01-14T03:18:07.061Z,71.77
2018-01-14T03:18:47.666Z,71.95
2018-01-14T03:19:28.236Z,72.05
2018-01-14T03:20:08.818Z,71.95
2018-01-14T03:20:49.390Z,72.33
2018-01-14T03:21:29.952Z,71.77
2018-01-14T03:22:10.525Z,71.67
2018-01-14T03:22:51.102Z,72.33
2018-01-14T03:23:31.676Z,72.43
2018-01-14T03:24:12.261Z,72.33
2018-01-14T03:24:52.831Z,72.33
2018-01-14T03:25:33.392Z,72.43
2018-01-14T03:26:13.955Z,72.33
2018-01-14T03:26:54.526Z,72.52
2018-01-14T03:27:35.082Z,72.14
2018-01-14T03:28:15.649Z,71.86
2018-01-14T03:28:56.236Z,71.86
2018-01-14T03:29:36.803Z,71.95
2018-01-14T03:30:17.366Z,72.43
2018-01-14T03:30:57.923Z,72.33
2018-01-14T03:31:38.480Z,72.33
2018-01-14T03:32:19.038Z,72.14
2018-01-14T03:32:59.600Z,72.14
2018-01-14T03:33:40.185Z,72.05
2018-01-14T03:34:20.784Z,72.05
2018-01-14T03:35:01.336Z,72.24
2018-01-14T03:35:41.906Z,72.14
2018-01-14T03:36:22.458Z,72.52
2018-01-14T03:37:03.017Z,72.43
2018-01-14T03:37:43.572Z,72.33
2018-01-14T03:38:24.133Z,72.43
2018-01-14T03:39:04.702Z,72.05
2018-01-14T03:39:45.248Z,71.86
2018-01-14T03:40:25.805Z,72.24
2018-01-14T03:41:06.381Z,72.24
2018-01-14T03:41:46.932Z,72.33
2018-01-14T03:42:27.486Z,72.33
2018-01-14T03:43:08.042Z,72.52
2018-01-14T03:43:48.610Z,72.62
2018-01-14T03:44:29.203Z,72.52
2018-01-14T03:45:09.744Z,72.71
2018-01-14T03:45:50.305Z,72.52
2018-01-14T03:46:30.888Z,72.43
2018-01-14T03:47:11.501Z,72.33
2018-01-14T03:47:52.071Z,72.33
2018-01-14T03:48:35.397Z,72.52
2018-01-14T03:49:15.964Z,72.62
2018-01-14T03:49:56.536Z,72.52
2018-01-14T03:50:37.099Z,72.43
2018-01-14T03:52:01.200Z,72.99
2018-01-14T03:52:41.764Z,72.9
2018-01-14T03:53:22.324Z,72.99
2018-01-14T03:54:02.883Z,72.62
2018-01-14T03:54:43.464Z,73.09
2018-01-14T03:55:24.714Z,72.99
2018-01-14T03:56:05.313Z,72.99
2018-01-14T03:56:45.874Z,72.9
2018-01-14T03:57:29.225Z,73.18
2018-01-14T03:58:12.400Z,72.9
2018-01-14T03:58:52.954Z,72.52
2018-01-14T03:59:33.526Z,72.43
2018-01-14T04:00:16.903Z,72.62
2018-01-14T04:02:04.363Z,72.43
2018-01-14T04:02:44.941Z,72.8
2018-01-14T04:03:26.247Z,72.9
2018-01-14T04:04:06.850Z,72.43
2018-01-14T04:04:47.419Z,72.43
2018-01-14T04:05:27.973Z,72.99
2018-01-14T04:06:08.540Z,72.71
2018-01-14T04:06:49.122Z,73.09
2018-01-14T04:07:29.712Z,73.09
2018-01-14T04:08:10.269Z,72.9
2018-01-14T04:08:50.843Z,72.71
2018-01-14T04:09:31.406Z,72.99
2018-01-14T04:10:11.959Z,72.9
2018-01-14T04:10:52.521Z,73.18
2018-01-14T04:11:33.078Z,73.47
2018-01-14T04:12:13.636Z,73.37
2018-01-14T04:12:54.181Z,73.37
2018-01-14T04:13:34.748Z,73.28
2018-01-14T04:14:15.297Z,72.99
2018-01-14T04:14:55.919Z,72.9
2018-01-14T04:15:36.500Z,72.9
2018-01-14T04:16:17.079Z,73.09
2018-01-14T04:16:57.649Z,72.99
2018-01-14T04:17:38.240Z,73.18
2018-01-14T04:18:18.794Z,72.99
2018-01-14T04:18:59.364Z,73.56
2018-01-14T04:19:39.911Z,73.56
2018-01-14T04:20:20.515Z,73.37
2018-01-14T04:21:01.085Z,73.28
2018-01-14T04:21:41.648Z,73.37
2018-01-14T04:22:22.228Z,73.28
2018-01-14T04:23:02.812Z,73.09
2018-01-14T04:23:43.370Z,73.37
2018-01-14T04:24:23.940Z,72.9
2018-01-14T04:25:04.505Z,72.8
2018-01-14T04:25:45.070Z,73.09
2018-01-14T04:26:25.655Z,72.99
2018-01-14T04:27:06.292Z,72.62
2018-01-14T04:27:46.868Z,72.99
2018-01-14T04:28:27.432Z,72.99
2018-01-14T04:29:08.020Z,73.09
2018-01-14T04:29:48.579Z,72.99
2018-01-14T04:30:29.228Z,73.37
2018-01-14T04:31:10.634Z,73.47
2018-01-14T04:31:51.253Z,72.99
2018-01-14T04:32:31.819Z,72.8
2018-01-14T04:33:12.376Z,72.52
2018-01-14T04:33:52.939Z,72.62
2018-01-14T04:34:33.508Z,72.99
2018-01-14T04:35:14.064Z,72.9
2018-01-14T04:35:54.645Z,72.8
2018-01-14T04:36:35.206Z,72.99
2018-01-14T04:37:15.787Z,72.8
2018-01-14T04:37:56.401Z,72.9
2018-01-14T04:38:36.944Z,73.09
2018-01-14T04:39:17.506Z,72.71
2018-01-14T04:39:58.087Z,72.99
2018-01-14T04:40:38.651Z,72.9
2018-01-14T04:41:19.229Z,72.9
2018-01-14T04:41:59.789Z,73.18
2018-01-14T04:42:40.352Z,73.09
2018-01-14T04:43:20.950Z,73.37
2018-01-14T04:44:03.057Z,73.47
2018-01-14T04:44:43.629Z,73.37
2018-01-14T04:45:24.212Z,73.28
2018-01-14T04:46:04.783Z,73.37
2018-01-14T04:46:45.363Z,73.47
2018-01-14T04:47:25.943Z,73.37
2018-01-14T04:48:06.524Z,73.47
2018-01-14T04:48:47.084Z,73.28
2018-01-14T04:49:27.662Z,73.18
2018-01-14T04:50:08.220Z,72.99
2018-01-14T04:50:48.784Z,72.8
2018-01-14T04:51:29.340Z,72.99
2018-01-14T04:52:09.916Z,72.8
2018-01-14T04:52:50.506Z,73.37
2018-01-14T04:53:31.069Z,73.37
2018-01-14T04:54:11.651Z,73.37
2018-01-14T04:54:52.240Z,73.37
2018-01-14T04:55:32.808Z,73.37
2018-01-14T04:56:13.378Z,73.28
2018-01-14T04:56:53.951Z,73.18
2018-01-14T04:57:34.540Z,72.99
2018-01-14T04:58:15.102Z,73.18
2018-01-14T04:58:55.684Z,73.37
2018-01-14T04:59:36.261Z,73.37
2018-01-14T05:00:16.816Z,73.09
2018-01-14T05:00:57.379Z,73.28
2018-01-14T05:01:37.981Z,72.71
2018-01-14T05:02:18.531Z,72.99
2018-01-14T05:02:59.120Z,72.9
2018-01-14T05:03:39.669Z,73.28
2018-01-14T05:04:20.223Z,73.28
2018-01-14T05:05:00.787Z,73.28
2018-01-14T05:05:41.396Z,73.09
2018-01-14T05:06:21.957Z,73.28
2018-01-14T05:07:02.527Z,73.28
2018-01-14T05:07:43.083Z,73.56
2018-01-14T05:08:23.654Z,73.37
2018-01-14T05:09:04.227Z,73.56
2018-01-14T05:09:44.827Z,73.09
2018-01-14T05:10:25.383Z,73.37
2018-01-14T05:11:05.948Z,73.37
2018-01-14T05:11:46.515Z,73.37
2018-01-14T05:12:27.076Z,73.47
2018-01-14T05:13:07.645Z,73.18
2018-01-14T05:13:48.216Z,72.99
2018-01-14T05:14:28.775Z,73.18
2018-01-14T05:15:09.335Z,72.99
2018-01-14T05:15:49.889Z,73.28
2018-01-14T05:16:30.457Z,73.37
2018-01-14T05:17:11.027Z,73.37
2018-01-14T05:17:51.601Z,73.28
2018-01-14T05:18:32.203Z,73.28
2018-01-14T05:19:12.765Z,73.28
2018-01-14T05:19:53.344Z,73.09
2018-01-14T05:20:33.953Z,73.28
2018-01-14T05:21:14.518Z,73.09
2018-01-14T05:21:55.149Z,73.37
2018-01-14T05:22:35.700Z,73.18
2018-01-14T05:23:16.269Z,73.28
2018-01-14T05:23:56.852Z,73.28
2018-01-14T05:24:37.407Z,73.28
2018-01-14T05:25:17.980Z,73.37
2018-01-14T05:25:58.536Z,73.09
2018-01-14T05:26:39.112Z,73.18
2018-01-14T05:27:19.675Z,73.37
2018-01-14T05:28:00.256Z,73.28
2018-01-14T05:28:40.819Z,73.56
2018-01-14T05:29:21.383Z,72.99
2018-01-14T05:30:01.943Z,73.56
2018-01-14T05:30:42.505Z,73.56
2018-01-14T05:31:23.127Z,73.47
2018-01-14T05:32:03.781Z,73.47
2018-01-14T05:32:44.348Z,73.47
2018-01-14T05:33:24.945Z,73.66
2018-01-14T05:34:05.537Z,73.56
2018-01-14T05:34:46.100Z,73.66
2018-01-14T05:35:26.661Z,73.47
2018-01-14T05:36:07.216Z,73.47
2018-01-14T05:36:47.770Z,73.28
2018-01-14T05:37:28.330Z,73.66
2018-01-14T05:38:08.884Z,73.37
2018-01-14T05:38:49.443Z,73.28
2018-01-14T05:39:29.997Z,73.28
2018-01-14T05:40:10.565Z,73.56
2018-01-14T05:40:51.140Z,73.85
2018-01-14T05:41:31.690Z,73.47
2018-01-14T05:42:12.242Z,73.47
2018-01-14T05:42:52.859Z,73.47
2018-01-14T05:43:33.417Z,73.47
2018-01-14T05:44:14.002Z,73.47
2018-01-14T05:44:54.568Z,73.47
2018-01-14T05:45:35.146Z,73.37
2018-01-14T05:46:15.719Z,73.66
2018-01-14T05:46:56.298Z,73.75
2018-01-14T05:47:36.887Z,73.85
2018-01-14T05:48:17.434Z,73.66
2018-01-14T05:48:58.017Z,73.47
2018-01-14T05:49:38.583Z,73.56
2018-01-14T05:50:19.138Z,73.66
2018-01-14T05:50:59.695Z,73.37
2018-01-14T05:51:40.273Z,73.94
2018-01-14T05:52:20.845Z,73.94
2018-01-14T05:53:01.397Z,74.04
2018-01-14T05:53:41.961Z,74.04
2018-01-14T05:54:22.541Z,73.75
2018-01-14T05:55:03.107Z,73.94
2018-01-14T05:55:43.699Z,73.66
2018-01-14T05:56:24.245Z,73.28
2018-01-14T05:57:04.814Z,73.47
2018-01-14T05:57:45.381Z,73.75
2018-01-14T05:58:26.004Z,73.75
2018-01-14T05:59:06.508Z,73.85
2018-01-14T05:59:47.099Z,74.13
2018-01-14T06:00:27.687Z,74.22
2018-01-14T06:01:08.241Z,73.85
2018-01-14T06:01:48.798Z,74.22
2018-01-14T06:02:30.185Z,74.22
2018-01-14T06:03:10.833Z,74.22
2018-01-14T06:03:51.396Z,74.32
2018-01-14T06:04:31.951Z,74.32
2018-01-14T06:05:12.549Z,74.04
2018-01-14T06:05:53.123Z,74.22
2018-01-14T06:06:33.731Z,74.41
2018-01-14T06:07:14.338Z,73.75
2018-01-14T06:07:54.943Z,74.41
2018-01-14T06:08:35.502Z,74.22
2018-01-14T06:09:16.083Z,74.22
2018-01-14T06:09:56.675Z,74.32
2018-01-14T06:10:37.281Z,74.22
2018-01-14T06:11:17.835Z,74.32
2018-01-14T06:11:58.385Z,74.32
2018-01-14T06:12:38.976Z,74.13
2018-01-14T06:13:19.596Z,74.13
2018-01-14T06:14:00.158Z,74.32
2018-01-14T06:14:40.749Z,74.04
2018-01-14T06:15:21.308Z,74.32
2018-01-14T06:16:01.883Z,74.13
2018-01-14T06:16:42.460Z,74.22
2018-01-14T06:17:23.021Z,74.22
2018-01-14T06:18:03.593Z,73.94
2018-01-14T06:18:44.172Z,74.32
2018-01-14T06:19:24.726Z,74.13
2018-01-14T06:20:05.278Z,74.04
2018-01-14T06:20:45.846Z,74.32
2018-01-14T06:21:26.409Z,74.13
2018-01-14T06:22:06.971Z,74.41
2018-01-14T06:22:47.534Z,74.79
2018-01-14T06:23:28.104Z,74.79
2018-01-14T06:24:08.681Z,74.79
2018-01-14T06:24:49.228Z,74.69
2018-01-14T06:25:29.815Z,74.79
2018-01-14T06:26:10.404Z,74.79
2018-01-14T06:26:51.048Z,74.51
2018-01-14T06:27:31.622Z,74.69
2018-01-14T06:28:12.197Z,74.69
2018-01-14T06:28:52.759Z,74.69
2018-01-14T06:29:33.311Z,75.07
2018-01-14T06:30:13.882Z,75.07
2018-01-14T06:30:54.449Z,75.07
2018-01-14T06:31:35.011Z,74.51
2018-01-14T06:32:15.594Z,74.98
2018-01-14T06:32:56.191Z,74.41
2018-01-14T06:33:36.754Z,74.41
2018-01-14T06:34:17.355Z,74.79
2018-01-14T06:34:57.907Z,74.6
2018-01-14T06:35:38.474Z,75.64
2018-01-14T06:36:19.083Z,75.07
2018-01-14T06:36:59.643Z,75.07
2018-01-14T06:37:40.194Z,75.26
2018-01-14T06:38:20.794Z,75.17
2018-01-14T06:39:01.343Z,75.36
2018-01-14T06:39:41.911Z,75.55
2018-01-14T06:40:22.481Z,74.6
2018-01-14T06:41:03.029Z,74.79
2018-01-14T06:41:43.589Z,74.6
2018-01-14T06:42:24.151Z,74.51
2018-01-14T06:43:04.716Z,74.98
2018-01-14T06:43:45.287Z,74.98
2018-01-14T06:44:25.854Z,74.6
2018-01-14T06:45:06.436Z,74.79
2018-01-14T06:45:46.992Z,74.41
2018-01-14T06:46:27.573Z,74.69
2018-01-14T06:47:08.136Z,75.55
2018-01-14T06:47:48.711Z,75.36
2018-01-14T06:48:29.274Z,75.45
2018-01-14T06:49:09.878Z,75.36
2018-01-14T06:49:50.424Z,75.26
2018-01-14T06:50:30.990Z,75.17
2018-01-14T06:51:11.544Z,75.17
2018-01-14T06:51:52.111Z,75.26
2018-01-14T06:52:32.686Z,75.07
2018-01-14T06:53:13.265Z,75.26
2018-01-14T06:53:53.815Z,75.74
2018-01-14T06:54:34.376Z,75.74
2018-01-14T06:55:14.934Z,75.74
2018-01-14T06:55:55.515Z,75.36
2018-01-14T06:56:36.087Z,75.55
2018-01-14T06:57:16.656Z,75.55
2018-01-14T06:57:57.233Z,75.64
2018-01-14T06:58:37.828Z,75.55
2018-01-14T06:59:18.397Z,75.83
2018-01-14T06:59:58.953Z,75.45
2018-01-14T07:00:39.528Z,75.55
2018-01-14T07:01:20.119Z,75.64
2018-01-14T07:02:00.694Z,75.64
2018-01-14T07:02:41.259Z,75.74
2018-01-14T07:03:21.830Z,76.02
2018-01-14T07:04:02.397Z,75.64
2018-01-14T07:04:43.017Z,76.12
2018-01-14T07:05:23.588Z,76.12
2018-01-14T07:06:04.159Z,76.21
2018-01-14T07:06:44.734Z,76.21
2018-01-14T07:07:25.313Z,76.31
2018-01-14T07:08:05.883Z,76.12
2018-01-14T07:08:46.468Z,76.12
2018-01-14T07:09:27.009Z,76.21
2018-01-14T07:10:07.565Z,76.21
2018-01-14T07:10:48.153Z,75.83
2018-01-14T07:11:28.729Z,75.83
2018-01-14T07:12:09.277Z,76.4
2018-01-14T07:12:49.836Z,75.83
2018-01-14T07:13:30.395Z,75.55
2018-01-14T07:15:43.966Z,75.64
2018-01-14T07:16:24.551Z,76.12
2018-01-14T07:17:05.110Z,76.02
2018-01-14T07:17:45.680Z,76.02
2018-01-14T07:18:26.232Z,76.02
2018-01-14T07:19:06.793Z,76.12
2018-01-14T07:19:47.362Z,75.93
2018-01-14T07:20:27.926Z,75.83
2018-01-14T07:21:08.512Z,76.31
2018-01-14T07:21:49.064Z,76.21
2018-01-14T07:22:29.636Z,76.12
2018-01-14T07:23:10.186Z,75.83
2018-01-14T07:23:50.773Z,76.4
2018-01-14T07:24:31.398Z,76.21
2018-01-14T07:25:11.938Z,76.02
2018-01-14T07:25:52.512Z,76.59
2018-01-14T07:26:33.074Z,76.02
2018-01-14T07:27:13.645Z,75.83
2018-01-14T07:27:54.201Z,75.83
2018-01-14T07:28:34.830Z,76.21
2018-01-14T07:29:15.350Z,76.5
2018-01-14T07:29:55.919Z,76.31
2018-01-14T07:30:36.625Z,76.5
2018-01-14T07:31:17.275Z,76.21
2018-01-14T07:31:57.908Z,76.12
2018-01-14T07:32:38.456Z,76.5
2018-01-14T07:33:19.009Z,76.31
2018-01-14T07:33:59.584Z,76.5
2018-01-14T07:34:40.136Z,76.21
2018-01-14T07:35:20.705Z,76.59
2018-01-14T07:36:01.301Z,76.4
2018-01-14T07:36:41.859Z,76.21
2018-01-14T07:37:22.419Z,75.93
2018-01-14T07:38:02.989Z,75.74
2018-01-14T07:38:43.541Z,75.93
2018-01-14T07:39:24.117Z,76.02
2018-01-14T07:40:04.664Z,75.93
2018-01-14T07:40:45.218Z,75.83
2018-01-14T07:41:25.762Z,75.93
2018-01-14T07:42:06.315Z,76.12
2018-01-14T07:42:46.891Z,76.5
2018-01-14T07:43:27.455Z,76.4
2018-01-14T07:44:08.018Z,76.5
2018-01-14T07:44:48.581Z,76.31
2018-01-14T07:45:29.166Z,75.64
2018-01-14T07:46:09.747Z,75.93
2018-01-14T07:46:50.305Z,75.74
2018-01-14T07:47:30.873Z,76.21
2018-01-14T07:48:11.453Z,75.93
2018-01-14T07:48:52.015Z,76.4
2018-01-14T07:49:32.572Z,76.12
2018-01-14T07:50:13.142Z,76.12
2018-01-14T07:50:53.710Z,76.12
2018-01-14T07:51:34.287Z,76.02
2018-01-14T07:52:14.841Z,76.02
2018-01-14T07:52:55.396Z,75.83
2018-01-14T07:53:35.947Z,76.02
2018-01-14T07:54:16.515Z,75.83
2018-01-14T07:54:57.063Z,76.02
2018-01-14T07:55:37.659Z,75.74
2018-01-14T07:56:18.247Z,75.74
2018-01-14T07:56:58.799Z,76.21
2018-01-14T07:57:39.386Z,76.21
2018-01-14T07:58:19.966Z,76.31
2018-01-14T07:59:00.543Z,75.74
2018-01-14T07:59:41.114Z,75.83
2018-01-14T08:00:21.688Z,76.4
2018-01-14T08:01:02.246Z,76.31
2018-01-14T08:01:42.805Z,76.21
2018-01-14T08:02:23.375Z,76.4
2018-01-14T08:03:03.944Z,76.4
2018-01-14T08:03:44.540Z,76.31
2018-01-14T08:04:25.112Z,76.31
2018-01-14T08:05:05.743Z,76.5
2018-01-14T08:05:46.315Z,76.59
2018-01-14T08:06:26.880Z,76.78
2018-01-14T08:07:07.448Z,76.59
2018-01-14T08:07:48.012Z,76.59
2018-01-14T08:08:28.567Z,76.31
2018-01-14T08:09:09.114Z,75.83
2018-01-14T08:09:49.673Z,76.21
2018-01-14T08:10:30.227Z,75.64
2018-01-14T08:11:10.782Z,76.12
2018-01-14T08:11:51.342Z,76.02
2018-01-14T08:12:31.908Z,76.02
2018-01-14T08:13:12.464Z,75.74
2018-01-14T08:13:53.040Z,76.02
2018-01-14T08:14:33.601Z,76.21
2018-01-14T08:15:14.144Z,76.31
2018-01-14T08:15:54.733Z,76.21
2018-01-14T08:16:35.298Z,76.12
2018-01-14T08:17:15.848Z,75.83
2018-01-14T08:17:56.430Z,75.55
2018-01-14T08:18:37.005Z,75.45
2018-01-14T08:19:17.589Z,75.55
2018-01-14T08:19:58.153Z,75.26
2018-01-14T08:20:38.718Z,75.07
2018-01-14T08:21:19.298Z,75.36
2018-01-14T08:21:59.863Z,74.88
2018-01-14T08:22:40.403Z,75.36
2018-01-14T08:23:20.970Z,75.36
2018-01-14T08:24:01.541Z,75.26
2018-01-14T08:24:42.127Z,75.36
2018-01-14T08:25:22.688Z,75.26
2018-01-14T08:26:03.251Z,75.36
2018-01-14T08:26:43.833Z,75.45
2018-01-14T08:27:24.388Z,75.55
2018-01-14T08:28:04.944Z,75.55
2018-01-14T08:28:45.502Z,75.17
2018-01-14T08:29:26.087Z,75.26
2018-01-14T08:30:06.678Z,75.36
2018-01-14T08:30:47.260Z,74.6
2018-01-14T08:31:27.812Z,74.6
2018-01-14T08:32:08.383Z,74.79
2018-01-14T08:32:48.957Z,75.07
2018-01-14T08:33:29.530Z,74.51
2018-01-14T08:34:10.122Z,74.69
2018-01-14T08:34:50.671Z,74.69
2018-01-14T08:35:31.264Z,75.17
2018-01-14T08:36:11.830Z,74.88
2018-01-14T08:36:52.395Z,74.69
2018-01-14T08:37:32.992Z,74.88
2018-01-14T08:38:13.541Z,74.69
2018-01-14T08:38:54.116Z,74.32
2018-01-14T08:39:34.670Z,74.51
2018-01-14T08:40:15.246Z,74.41
2018-01-14T08:40:55.914Z,74.22
2018-01-14T08:41:36.511Z,74.13
2018-01-14T08:42:17.083Z,74.32
2018-01-14T08:42:57.657Z,74.41
2018-01-14T08:43:38.204Z,74.32
2018-01-14T08:44:18.768Z,74.32
2018-01-14T08:44:59.342Z,74.32
2018-01-14T08:45:39.975Z,74.41
2018-01-14T08:46:20.531Z,74.22
2018-01-14T08:47:01.081Z,74.04
2018-01-14T08:47:41.645Z,74.04
2018-01-14T08:48:22.217Z,74.22
2018-01-14T08:49:02.782Z,74.13